map of HBA home
HBA - Airport
Location
City:  Hobart, Tasmania, Australia
ICAO:YMHB
IATA:HBA

Details
Type:Airport (Aerodrome, Airfield)
Use:Public/Civil, International (customs port of entry)
Latitude:4250'10"S (-42.836110)
Longitude:14730'37"E (147.510278)
Datum:WGS 1984
Elevation:13 ft (4 m)
Variation:15.12E (WMM2015 magnetic declination)
0.04 annual change
Runways:1
Longest:7385 × 148 ft (2251 × 45 m), paved

Time
Time Zone:UTC+10 (DST+11)
Local Time:

Weather
METAR:YMHB 200100Z 36007KT 9999 -RA FEW035 SCT050 BKN060 06/02 Q1013
TAF:YMHB 192301Z 2000/2024 33012KT 9999 -RA FEW045
FM200600 29014KT 9999 -SHRA SCT030
FM200900 31010KT 9999 -SHRA SCT030
FM201200 32010KT 9999 SCT030
FM201800 31014KT 9999 -SHRA SCT025

Related Locations
Nearby:
Farthest:CVU: 12201 mi / 19636 km
Corvo Island, 20, PT

Find:

   beyond  
but within

Other Information
Maps:
NOTAMs:
Links:
Sources:

  
  • flag of Australia
  • flag of Tasmania
  

Sectional Chart

Flight Planning
at skyvector.com

Satellite Image

Google Maps Satellite view

 

Copyright © 2004-2018 Karl L. Swartz. All rights reserved.
The Great Circle Mapper name and logo are trademarks of the Great Circle Mapper.
All other trademarks mentioned herein belong to their respective owners.
Please see credits for attibutions and further copyright information.

  Follow gcmap on Facebook Follow gcmap on Twitter Follow gcmap on Google+ GCmap on LinkedIn

hCard Microformat

Geo Microformat